Time;durP1;ratioP1;P1;durP2;ratioP2;P2;SDS_P1;SDS_P2;PMS_P1;PMS_P2;Temp;Humidity;BMP_temperature;BMP_pressure;BME280_temperature;BME280_humidity;BME280_pressure;Samples;Min_cycle;Max_cycle;Signal;HPM_P1;HPM_P2
2021/10/15 00:01:59;;;;;;;;;;;3.40;99.90;;;;;;5049144;28;20486;-81
2021/10/15 00:04:25;;;;;;;17.35;9.93;;;3.30;99.90;;;;;;5048590;28;19905;-81
2021/10/15 00:06:50;;;;;;;;;;;3.30;99.90;;;;;;5049587;28;20075;-81
2021/10/15 00:09:16;;;;;;;17.88;11.60;;;3.20;99.90;;;;;;5049080;28;19930;-81
2021/10/15 00:11:43;;;;;;;;;;;3.30;99.90;;;;;;5048939;28;20060;-82
2021/10/15 00:14:09;;;;;;;18.58;10.30;;;3.30;99.90;;;;;;5048517;28;19923;-79
2021/10/15 00:16:34;;;;;;;;;;;3.20;99.90;;;;;;5049599;28;20037;-79
2021/10/15 00:19:00;;;;;;;21.60;10.35;;;3.20;99.90;;;;;;5048447;28;20597;-79
2021/10/15 00:21:25;;;;;;;;;;;3.20;99.90;;;;;;5049458;28;20041;-80
2021/10/15 00:23:51;;;;;;;17.52;11.88;;;3.20;99.90;;;;;;5049016;28;19917;-80
2021/10/15 00:26:16;;;;;;;;;;;3.20;99.90;;;;;;5048905;28;20387;-80
2021/10/15 00:28:42;;;;;;;21.08;12.13;;;3.20;99.90;;;;;;5048339;28;19944;-78
2021/10/15 00:31:08;;;;;;;;;;;3.20;99.90;;;;;;5049290;28;20036;-80
2021/10/15 00:33:33;;;;;;;30.95;13.88;;;3.10;99.90;;;;;;5046974;28;19924;-79
2021/10/15 00:35:59;;;;;;;;;;;3.10;99.90;;;;;;5048841;28;20145;-81
2021/10/15 00:38:24;;;;;;;30.70;14.73;;;3.10;99.90;;;;;;5047170;28;19905;-79
2021/10/15 00:40:50;;;;;;;;;;;3.10;99.90;;;;;;5048986;28;20076;-80
2021/10/15 00:43:15;;;;;;;27.40;13.57;;;3.10;99.90;;;;;;5048718;28;19950;-80
2021/10/15 00:45:41;;;;;;;;;;;3.10;99.90;;;;;;5048710;28;20087;-80
2021/10/15 00:48:07;;;;;;;25.15;12.07;;;3.10;99.90;;;;;;5048263;28;20031;-79
2021/10/15 00:50:33;;;;;;;;;;;3.10;99.90;;;;;;5047842;28;20085;-80
2021/10/15 00:52:58;;;;;;;29.77;13.50;;;3.00;99.90;;;;;;5048209;28;19967;-80
2021/10/15 00:55:24;;;;;;;;;;;3.10;99.90;;;;;;5048404;28;20049;-79
2021/10/15 00:57:50;;;;;;;18.35;10.00;;;3.00;99.90;;;;;;5047173;28;19939;-80
2021/10/15 01:00:15;;;;;;;;;;;3.00;99.90;;;;;;5048694;28;20033;-79
2021/10/15 01:02:44;;;;;;;13.50;8.70;;;3.10;99.90;;;;;;5047333;28;19912;-81
2021/10/15 01:05:10;;;;;;;16.52;9.30;;;3.10;99.90;;;;;;5046622;28;20044;-79
2021/10/15 01:07:37;;;;;;;16.67;10.05;;;3.10;99.90;;;;;;5048203;28;20489;-81
2021/10/15 01:10:03;;;;;;;20.63;10.60;;;3.10;99.90;;;;;;5046326;28;20044;-80
2021/10/15 01:12:30;;;;;;;20.15;10.70;;;3.10;99.90;;;;;;5047927;28;20028;-79
2021/10/15 01:14:55;;;;;;;17.17;9.40;;;3.00;99.90;;;;;;5046435;28;20029;-80
2021/10/15 01:17:21;;;;;;;;;;;3.00;99.90;;;;;;5048035;28;20102;-78
2021/10/15 01:19:54;;;;;;;15.02;9.23;;;3.00;99.90;;;;;;5047866;28;19963;-80
2021/10/15 01:22:24;;;;;;;15.77;9.55;;;3.00;99.90;;;;;;5046273;28;20068;-80
2021/10/15 01:24:50;;;;;;;17.38;9.75;;;3.00;99.90;;;;;;5047903;28;20100;-79
2021/10/15 01:27:16;;;;;;;;;;;3.00;99.90;;;;;;5048201;28;20032;-80
2021/10/15 01:29:41;;;;;;;15.18;8.98;;;3.00;99.90;;;;;;5047797;28;20478;-80
2021/10/15 01:32:09;;;;;;;;;;;3.00;99.90;;;;;;5047590;28;20555;-78
2021/10/15 01:34:35;;;;;;;15.68;8.57;;;3.00;99.90;;;;;;5047138;28;19909;-79
2021/10/15 01:37:01;;;;;;;;;;;3.00;99.90;;;;;;5047741;28;20028;-79
2021/10/15 01:39:26;;;;;;;18.02;8.70;;;3.00;99.90;;;;;;5046514;28;20419;-79
2021/10/15 01:41:52;;;;;;;;;;;2.90;99.90;;;;;;5050821;28;20505;-79
2021/10/15 01:44:18;;;;;;;15.57;7.80;;;2.90;99.90;;;;;;5047223;28;19905;-79
2021/10/15 01:46:43;;;;;;;;;;;2.80;99.90;;;;;;5047207;28;20490;-79
2021/10/15 01:49:09;;;;;;;15.07;8.90;;;2.80;99.90;;;;;;5047033;28;19908;-79
2021/10/15 01:51:35;;;;;;;;;;;2.80;99.90;;;;;;5047818;28;20052;-80
2021/10/15 01:54:00;;;;;;;12.57;8.00;;;2.80;99.90;;;;;;5045064;28;20459;-79
2021/10/15 01:56:26;;;;;;;;;;;2.80;99.90;;;;;;5046065;28;20532;-79
2021/10/15 01:58:51;;;;;;;10.57;6.93;;;2.80;99.90;;;;;;5046742;28;19908;-79
2021/10/15 02:01:17;;;;;;;;;;;2.80;99.90;;;;;;5047671;28;20036;-80
2021/10/15 02:03:42;;;;;;;10.88;7.63;;;2.80;99.90;;;;;;5045537;28;20336;-80
2021/10/15 02:06:08;;;;;;;;;;;2.80;99.90;;;;;;5047512;28;20440;-80
2021/10/15 02:08:34;;;;;;;14.07;8.27;;;2.80;99.90;;;;;;5047181;28;19959;-80
2021/10/15 02:11:00;;;;;;;13.68;8.23;;;2.80;99.90;;;;;;5046323;28;20041;-80
2021/10/15 02:13:25;;;;;;;;;;;2.80;99.90;;;;;;5045009;28;20074;-79
2021/10/15 02:15:51;;;;;;;12.30;6.78;;;2.80;99.90;;;;;;5040849;28;20019;-80
2021/10/15 02:18:17;;;;;;;;;;;2.80;99.90;;;;;;5043391;28;20086;-80
2021/10/15 02:20:43;;;;;;;15.88;7.57;;;2.90;99.90;;;;;;5043408;28;19931;-79
2021/10/15 02:23:09;;;;;;;12.27;6.85;;;3.00;99.90;;;;;;5042617;28;20036;-81
2021/10/15 02:25:35;;;;;;;;;;;3.00;99.90;;;;;;5043800;28;20068;-79
2021/10/15 02:28:00;;;;;;;11.23;6.60;;;2.90;99.90;;;;;;5043586;28;19905;-79
2021/10/15 02:30:28;;;;;;;;;;;2.90;99.90;;;;;;5043057;28;20033;-79
2021/10/15 02:32:54;;;;;;;8.65;6.13;;;2.90;99.90;;;;;;5042800;28;20333;-79
2021/10/15 02:35:20;;;;;;;;;;;2.80;99.90;;;;;;5042505;28;20064;-80
2021/10/15 02:37:46;;;;;;;12.05;7.88;;;2.80;99.90;;;;;;5042159;28;19909;-80
2021/10/15 02:40:13;;;;;;;13.35;9.27;;;2.80;99.90;;;;;;5042586;28;20049;-79
2021/10/15 02:42:39;;;;;;;19.98;10.40;;;2.80;99.90;;;;;;5043211;28;20040;-80
2021/10/15 02:45:05;;;;;;;;;;;2.80;99.90;;;;;;5043541;28;20359;-80
2021/10/15 02:47:31;;;;;;;14.40;8.55;;;2.80;99.90;;;;;;5042798;28;20273;-81
2021/10/15 02:49:57;;;;;;;;;;;2.70;99.90;;;;;;5043711;28;20163;-80
2021/10/15 02:52:23;;;;;;;13.50;7.38;;;2.70;99.90;;;;;;5045514;28;20450;-79
2021/10/15 02:54:48;;;;;;;;;;;2.70;99.90;;;;;;5047666;28;20115;-80
2021/10/15 02:57:14;;;;;;;11.30;7.05;;;2.70;99.90;;;;;;5045622;28;20407;-80
2021/10/15 02:59:40;;;;;;;;;;;2.80;99.90;;;;;;5047657;28;20036;-80
2021/10/15 03:02:07;;;;;;;11.20;7.22;;;2.70;99.90;;;;;;5045045;28;19955;-81
2021/10/15 03:04:32;;;;;;;11.48;7.53;;;2.80;99.90;;;;;;5046844;28;20563;-80
2021/10/15 03:06:58;;;;;;;;;;;2.80;99.90;;;;;;5046545;28;20037;-79
2021/10/15 03:09:23;;;;;;;11.15;6.95;;;2.70;99.90;;;;;;5046788;28;19948;-80
2021/10/15 03:11:49;;;;;;;;;;;2.80;99.90;;;;;;5047832;28;20508;-81
2021/10/15 03:14:15;;;;;;;11.23;7.45;;;2.70;99.90;;;;;;5046437;28;20562;-80
2021/10/15 03:16:40;;;;;;;;;;;2.80;99.90;;;;;;5046884;28;20135;-80
2021/10/15 03:19:06;;;;;;;11.75;7.25;;;2.80;99.90;;;;;;5046195;28;20396;-80
2021/10/15 03:21:32;;;;;;;;;;;2.70;99.90;;;;;;5046585;28;20826;-80
2021/10/15 03:23:57;;;;;;;11.07;7.78;;;2.70;99.90;;;;;;5046630;28;19912;-79
2021/10/15 03:26:23;;;;;;;;;;;2.70;99.90;;;;;;5046386;28;20017;-80
2021/10/15 03:28:48;;;;;;;16.35;9.73;;;2.70;99.90;;;;;;5046944;28;19915;-81
2021/10/15 03:31:14;;;;;;;;;;;2.70;99.90;;;;;;5046157;28;20031;-81
2021/10/15 03:33:39;;;;;;;13.80;8.60;;;2.70;99.90;;;;;;5046560;28;19909;-80
2021/10/15 03:36:05;;;;;;;;;;;2.70;99.90;;;;;;5046764;28;20039;-80
2021/10/15 03:38:31;;;;;;;15.68;8.93;;;2.70;99.90;;;;;;5045177;28;19908;-79
2021/10/15 03:40:56;;;;;;;;;;;2.70;99.90;;;;;;5047011;28;20051;-81
2021/10/15 03:43:22;;;;;;;15.90;9.90;;;2.70;99.90;;;;;;5046955;28;19913;-81
2021/10/15 03:45:47;;;;;;;;;;;2.80;99.90;;;;;;5047024;28;20040;-80
2021/10/15 03:48:13;;;;;;;16.67;10.27;;;2.80;99.90;;;;;;5045578;28;19976;-80
2021/10/15 03:50:38;;;;;;;;;;;2.80;99.90;;;;;;5045168;28;20034;-79
2021/10/15 03:53:04;;;;;;;16.02;9.70;;;2.80;99.90;;;;;;5045912;28;20321;-81
2021/10/15 03:55:30;;;;;;;;;;;2.80;99.90;;;;;;5046769;28;20493;-79
2021/10/15 03:57:55;;;;;;;17.55;10.07;;;2.70;99.90;;;;;;5044483;28;19942;-79
2021/10/15 04:00:21;;;;;;;;;;;2.70;99.90;;;;;;5044619;28;20043;-80
2021/10/15 04:02:47;;;;;;;17.00;11.27;;;2.70;99.90;;;;;;5045082;28;19919;-79
2021/10/15 04:05:13;;;;;;;;;;;2.70;99.90;;;;;;5044421;28;20547;-80
2021/10/15 04:07:40;;;;;;;13.35;8.93;;;2.70;99.90;;;;;;5046023;28;19931;-79
2021/10/15 04:10:08;;;;;;;14.57;8.43;;;2.70;99.90;;;;;;5044442;28;20393;-79
2021/10/15 04:12:34;;;;;;;13.05;8.80;;;2.70;99.90;;;;;;5045639;28;20432;-78
2021/10/15 04:15:00;;;;;;;12.73;8.45;;;2.70;99.90;;;;;;5046763;28;20021;-80
2021/10/15 04:17:26;;;;;;;;;;;2.70;99.90;;;;;;5049572;28;20025;-79
2021/10/15 04:19:52;;;;;;;14.05;9.43;;;2.60;99.90;;;;;;5047931;28;20062;-79
2021/10/15 04:22:18;;;;;;;12.80;8.88;;;2.60;99.90;;;;;;5048640;28;20040;-80
2021/10/15 04:24:43;;;;;;;;;;;2.60;99.90;;;;;;5049535;28;20851;-80
2021/10/15 04:27:10;;;;;;;12.02;7.85;;;2.50;99.90;;;;;;5048973;28;19905;-81
2021/10/15 04:29:35;;;;;;;11.63;7.05;;;2.50;99.90;;;;;;5047188;28;20024;-80
2021/10/15 04:32:01;;;;;;;;;;;2.40;99.90;;;;;;5049640;28;20121;-80
2021/10/15 04:34:27;;;;;;;11.90;7.70;;;2.40;99.90;;;;;;5048619;28;20005;-80
2021/10/15 04:36:52;;;;;;;;;;;2.40;99.90;;;;;;5048380;28;20044;-79
2021/10/15 04:39:18;;;;;;;14.00;9.23;;;2.30;99.90;;;;;;5047640;28;20654;-80
2021/10/15 04:41:44;;;;;;;13.40;9.40;;;2.30;99.90;;;;;;5046791;28;20985;-80
2021/10/15 04:44:10;;;;;;;;;;;2.30;99.90;;;;;;5046971;28;20524;-80
2021/10/15 04:46:35;;;;;;;18.33;11.80;;;2.30;99.90;;;;;;5045934;28;20463;-79
2021/10/15 04:49:01;;;;;;;;;;;2.30;99.90;;;;;;5047157;28;20665;-78
2021/10/15 04:51:27;;;;;;;20.13;11.82;;;2.20;99.90;;;;;;5048069;28;20007;-80
2021/10/15 04:53:53;;;;;;;;;;;2.30;99.90;;;;;;5046687;28;20064;-80
2021/10/15 04:56:18;;;;;;;26.13;13.98;;;2.20;99.90;;;;;;5047918;28;20377;-79
2021/10/15 04:58:44;;;;;;;;;;;2.20;99.90;;;;;;5047722;28;20017;-80
2021/10/15 05:01:10;;;;;;;43.45;19.65;;;2.20;99.90;;;;;;5046916;28;20507;-78
2021/10/15 05:03:35;;;;;;;;;;;2.20;99.90;;;;;;5046169;28;20577;-79
2021/10/15 05:06:01;;;;;;;34.25;19.60;;;2.20;99.90;;;;;;5047217;28;19909;-77
2021/10/15 05:08:31;;;;;;;;;;;2.30;99.90;;;;;;5047491;28;20037;-78
2021/10/15 05:10:57;;;;;;;38.83;21.75;;;2.20;99.90;;;;;;5047448;28;19909;-80
2021/10/15 05:13:23;;;;;;;44.75;24.42;;;2.20;99.90;;;;;;5047422;28;20529;-80
2021/10/15 05:15:49;;;;;;;;;;;2.30;99.90;;;;;;5046580;28;20029;-79
2021/10/15 05:18:15;;;;;;;30.85;15.43;;;2.30;99.90;;;;;;5046567;28;19916;-80
2021/10/15 05:20:43;;;;;;;;;;;2.40;99.90;;;;;;5046604;28;20063;-78
2021/10/15 05:23:09;;;;;;;29.80;15.93;;;2.40;99.90;;;;;;5047910;28;19944;-80
2021/10/15 05:25:36;;;;;;;29.38;14.65;;;2.50;99.90;;;;;;5047675;28;20036;-82
2021/10/15 05:28:04;;;;;;;41.20;19.27;;;2.60;99.90;;;;;;5047669;28;20113;-80
2021/10/15 05:30:30;;;;;;;53.47;22.90;;;2.60;99.90;;;;;;5047121;28;20446;-80
2021/10/15 05:32:56;;;;;;;54.88;24.10;;;2.60;99.90;;;;;;5046369;28;20090;-79
2021/10/15 05:35:22;;;;;;;51.65;23.13;;;2.60;99.90;;;;;;5047282;28;20102;-79
2021/10/15 05:37:48;;;;;;;;;;;2.60;99.90;;;;;;5047815;28;20467;-79
2021/10/15 05:40:14;;;;;;;46.50;21.77;;;2.70;99.90;;;;;;5045996;28;19946;-80
2021/10/15 05:42:46;;;;;;;;;;;2.70;99.90;;;;;;5045840;28;20049;-81
2021/10/15 05:45:13;;;;;;;36.08;17.45;;;2.70;99.90;;;;;;5045054;28;20099;-78
2021/10/15 05:47:38;;;;;;;35.20;16.60;;;2.80;99.90;;;;;;5047266;28;20040;-81
2021/10/15 05:50:04;;;;;;;;;;;2.90;99.90;;;;;;5047063;28;20037;-78
2021/10/15 05:52:34;;;;;;;40.03;18.88;;;2.90;99.90;;;;;;5046615;28;19921;-78
2021/10/15 06:00:23;;;;;;;42.33;21.50;;;3.20;99.90;;;;;;5046201;28;20033;-78
2021/10/15 06:02:49;;;;;;;40.85;21.15;;;3.40;99.90;;;;;;5046546;28;20037;-78
2021/10/15 06:16:10;;;;;;;23.38;10.57;;;4.80;99.90;;;;;;5035436;28;20037;-78
2021/10/15 06:18:40;;;;;;;16.85;10.38;;;5.10;99.90;;;;;;5045264;28;20025;-78
2021/10/15 06:21:07;;;;;;;18.25;10.38;;;5.50;99.90;;;;;;5046449;28;20382;-78
2021/10/15 06:23:33;;;;;;;21.40;10.40;;;5.80;99.90;;;;;;5044884;28;20037;-78
2021/10/15 06:26:00;;;;;;;18.20;10.50;;;6.30;99.90;;;;;;5045747;28;20032;-78
2021/10/15 06:28:26;;;;;;;20.17;10.25;;;6.80;99.90;;;;;;5045429;28;20033;-78
2021/10/15 06:30:52;;;;;;;24.27;11.18;;;7.70;99.90;;;;;;5046500;28;20094;-78
2021/10/15 06:33:17;;;;;;;;;;;8.50;99.90;;;;;;5046465;28;20478;-78
2021/10/15 06:35:43;;;;;;;16.13;9.45;;;9.30;99.90;;;;;;5045622;28;20377;-79
2021/10/15 06:38:09;;;;;;;;;;;10.10;99.90;;;;;;5046503;28;20036;-78
2021/10/15 06:40:36;;;;;;;32.10;9.40;;;10.80;98.60;;;;;;5046207;28;19955;-78
2021/10/15 06:43:02;;;;;;;19.30;9.73;;;11.30;97.60;;;;;;5044456;28;20112;-80
2021/10/15 06:45:27;;;;;;;;;;;12.00;95.00;;;;;;5045192;28;20818;-79
2021/10/15 06:47:53;;;;;;;20.08;9.10;;;12.60;91.50;;;;;;5045990;28;19909;-80
2021/10/15 06:50:19;;;;;;;;;;;13.00;90.80;;;;;;5046483;28;20206;-78
2021/10/15 06:52:48;;;;;;;14.93;9.63;;;13.10;86.30;;;;;;5045869;28;19932;-79
2021/10/15 06:55:18;;;;;;;9.70;6.97;;;13.00;88.40;;;;;;5044429;28;20044;-79
2021/10/15 06:57:44;;;;;;;15.90;7.78;;;12.90;87.00;;;;;;5045857;28;20029;-79
2021/10/15 07:00:11;;;;;;;14.00;7.13;;;12.90;84.50;;;;;;5045809;28;20048;-79
2021/10/15 07:02:37;;;;;;;14.45;7.20;;;12.70;86.30;;;;;;5045936;28;20033;-80
2021/10/15 07:05:04;;;;;;;12.10;7.07;;;12.50;87.50;;;;;;5045935;28;20021;-79
2021/10/15 07:07:30;;;;;;;13.60;6.95;;;12.40;89.00;;;;;;5045758;28;20098;-78
2021/10/15 07:09:56;;;;;;;10.77;7.30;;;12.30;89.80;;;;;;5045772;28;20021;-78
2021/10/15 07:12:22;;;;;;;;;;;12.20;90.00;;;;;;5045756;28;20371;-77
2021/10/15 07:14:47;;;;;;;12.75;8.95;;;12.10;89.90;;;;;;5045157;28;19908;-80
2021/10/15 07:17:13;;;;;;;;;;;12.00;90.60;;;;;;5046148;28;20087;-79
2021/10/15 07:19:38;;;;;;;17.00;11.02;;;11.90;89.90;;;;;;5044575;28;19912;-80
2021/10/15 07:22:04;;;;;;;;;;;11.90;90.70;;;;;;5046284;28;20138;-80
2021/10/15 07:24:29;;;;;;;13.70;10.15;;;11.80;90.50;;;;;;5045528;28;19966;-80
2021/10/15 07:26:55;;;;;;;;;;;11.70;91.30;;;;;;5045818;28;20029;-80
2021/10/15 07:29:20;;;;;;;12.98;9.95;;;11.70;91.30;;;;;;5044175;28;19959;-81
2021/10/15 07:31:46;;;;;;;;;;;11.60;92.10;;;;;;5046175;28;20068;-79
2021/10/15 07:34:12;;;;;;;17.30;12.18;;;11.50;92.10;;;;;;5045321;28;19982;-80
2021/10/15 07:36:38;;;;;;;17.58;10.07;;;11.50;92.40;;;;;;5045984;28;20032;-80
2021/10/15 07:39:05;;;;;;;;;;;11.50;92.40;;;;;;5050129;28;20017;-81
2021/10/15 07:41:31;;;;;;;;;;;11.40;92.20;;;;;;5049466;28;19912;-81
2021/10/15 07:43:57;;;;;;;16.98;11.50;;;11.40;92.70;;;;;;5048807;28;20292;-79
2021/10/15 07:46:23;;;;;;;;;;;11.40;92.20;;;;;;5048156;28;20044;-81
2021/10/15 07:48:48;;;;;;;18.60;12.23;;;11.30;92.50;;;;;;5049586;28;19909;-81
2021/10/15 07:51:14;;;;;;;;;;;11.30;93.60;;;;;;5048079;28;20086;-80
2021/10/15 07:53:40;;;;;;;18.17;10.27;;;11.40;94.00;;;;;;5048744;28;20423;-80
2021/10/15 07:56:05;;;;;;;;;;;11.50;93.90;;;;;;5049211;28;20116;-80
2021/10/15 07:58:31;;;;;;;15.20;9.63;;;11.80;93.60;;;;;;5048233;28;19939;-79
2021/10/15 08:00:57;;;;;;;;;;;12.40;93.00;;;;;;5047685;28;20524;-78
2021/10/15 08:03:22;;;;;;;12.68;9.27;;;12.90;91.30;;;;;;5048954;28;20293;-79
2021/10/15 08:05:48;;;;;;;;;;;13.30;91.10;;;;;;5048772;28;20799;-78
2021/10/15 08:08:14;;;;;;;21.50;10.07;;;13.80;89.30;;;;;;5047367;28;19952;-79
2021/10/15 08:10:39;;;;;;;;;;;14.40;88.00;;;;;;5047404;28;20078;-79
2021/10/15 08:13:05;;;;;;;15.57;10.85;;;14.90;83.00;;;;;;5046827;28;19905;-79
2021/10/15 08:15:30;;;;;;;22.33;10.52;;;15.40;81.50;;;;;;5048576;28;20033;-79
2021/10/15 08:17:58;;;;;;;18.58;11.75;;;15.90;79.60;;;;;;5048436;28;20447;-78
2021/10/15 08:20:24;;;;;;;20.42;11.25;;;16.40;76.60;;;;;;5046617;28;20398;-79
2021/10/15 08:22:51;;;;;;;20.33;12.55;;;16.90;72.00;;;;;;5048328;28;20055;-78
2021/10/15 08:25:17;;;;;;;11.98;8.98;;;17.30;69.60;;;;;;5048545;28;20135;-79
2021/10/15 08:27:43;;;;;;;13.73;10.23;;;17.50;68.10;;;;;;5047752;28;20060;-81
2021/10/15 08:30:09;;;;;;;12.80;9.52;;;17.90;64.50;;;;;;5047580;28;20068;-78
2021/10/15 08:32:34;;;;;;;15.15;10.95;;;18.20;62.90;;;;;;5047872;28;20029;-79
2021/10/15 08:35:00;;;;;;;19.63;11.25;;;18.50;60.30;;;;;;5048165;28;20067;-80
2021/10/15 08:37:26;;;;;;;12.45;8.55;;;18.90;59.50;;;;;;5047872;28;20338;-79
2021/10/15 08:39:52;;;;;;;21.80;11.93;;;19.20;57.70;;;;;;5047818;28;20060;-79
2021/10/15 08:42:17;;;;;;;15.27;8.68;;;19.30;56.80;;;;;;5047106;28;20063;-80
2021/10/15 08:44:45;;;;;;;13.02;9.35;;;19.30;54.70;;;;;;5048035;28;20036;-79
2021/10/15 08:47:16;;;;;;;18.88;13.05;;;19.40;53.20;;;;;;5047810;28;20108;-80
2021/10/15 08:49:44;;;;;;;18.95;11.23;;;19.80;53.10;;;;;;5046808;28;20597;-80
2021/10/15 08:52:11;;;;;;;12.23;9.57;;;20.20;51.70;;;;;;5046212;28;20036;-80
2021/10/15 08:54:38;;;;;;;11.82;9.57;;;20.50;51.80;;;;;;5047127;28;20078;-80
2021/10/15 08:57:04;;;;;;;18.40;11.35;;;20.80;50.70;;;;;;5046131;28;20029;-79
2021/10/15 08:59:47;;;;;;;18.17;10.80;;;20.60;50.80;;;;;;5047657;28;20033;-80
2021/10/15 09:02:16;;;;;;;11.98;8.80;;;20.70;49.50;;;;;;5047502;28;20057;-79
2021/10/15 09:04:44;;;;;;;16.20;8.88;;;20.80;48.60;;;;;;5047685;28;20028;-81
2021/10/15 09:07:14;;;;;;;14.25;9.63;;;20.90;48.10;;;;;;5047645;28;20210;-80
2021/10/15 09:09:41;;;;;;;11.60;9.55;;;21.00;48.30;;;;;;5047652;28;20021;-80
2021/10/15 09:12:12;;;;;;;12.43;9.23;;;21.00;47.50;;;;;;5045268;28;20543;-80
2021/10/15 09:14:39;;;;;;;14.48;8.30;;;21.00;47.60;;;;;;5047439;28;20481;-80
2021/10/15 09:17:09;;;;;;;11.30;7.95;;;21.30;46.40;;;;;;5047325;28;20508;-81
2021/10/15 09:19:46;;;;;;;12.25;8.65;;;21.30;46.00;;;;;;5047143;28;20104;-81
2021/10/15 09:22:18;;;;;;;12.68;9.48;;;21.50;45.00;;;;;;5045577;28;20506;-79
2021/10/15 09:24:51;;;;;;;7.65;6.00;;;21.50;45.60;;;;;;5047094;28;20485;-80
2021/10/15 09:27:57;;;;;;;8.13;5.65;;;21.60;45.30;;;;;;5046299;28;20097;-80
2021/10/15 09:30:24;;;;;;;7.50;5.40;;;21.40;45.50;;;;;;5024046;28;20473;-80
2021/10/15 09:32:55;;;;;;;8.65;5.93;;;21.40;45.50;;;;;;5024544;28;20112;-80
2021/10/15 09:35:26;;;;;;;13.30;7.40;;;21.40;45.30;;;;;;5035894;28;20120;-79
2021/10/15 09:38:02;;;;;;;14.88;5.88;;;21.50;44.60;;;;;;5046934;28;20025;-79
2021/10/15 09:40:43;;;;;;;11.20;5.95;;;21.50;45.00;;;;;;5046864;28;20060;-80
2021/10/15 09:43:11;;;;;;;7.20;5.85;;;21.80;44.10;;;;;;5046633;28;20036;-78
2021/10/15 09:45:43;;;;;;;10.95;7.55;;;21.70;44.50;;;;;;5046420;28;20486;-80
2021/10/15 09:48:20;;;;;;;8.68;5.60;;;21.70;44.50;;;;;;5046876;28;20588;-80
2021/10/15 09:50:48;;;;;;;8.43;6.28;;;21.60;43.50;;;;;;5045258;28;20397;-80
2021/10/15 09:53:13;;;;;;;6.97;5.40;;;21.60;44.10;;;;;;5045404;28;20053;-80
2021/10/15 09:55:41;;;;;;;6.40;4.88;;;21.70;44.30;;;;;;5046587;28;20025;-80
2021/10/15 09:58:24;;;;;;;7.05;4.82;;;21.70;43.70;;;;;;5046936;28;20104;-79
2021/10/15 10:00:54;;;;;;;6.85;5.70;;;21.40;43.90;;;;;;5044360;28;20032;-80
2021/10/15 10:03:22;;;;;;;8.85;6.65;;;20.70;44.90;;;;;;5044934;28;20021;-80
2021/10/15 10:05:49;;;;;;;7.28;5.63;;;20.10;45.80;;;;;;5046139;28;20032;-79
2021/10/15 10:08:15;;;;;;;8.18;5.20;;;19.30;48.30;;;;;;5046407;28;20155;-80
2021/10/15 10:10:42;;;;;;;7.82;5.60;;;18.70;49.00;;;;;;5045654;28;20023;-79
2021/10/15 10:13:10;;;;;;;10.35;6.05;;;18.30;49.00;;;;;;5046349;28;20037;-79
2021/10/15 10:15:43;;;;;;;12.15;6.38;;;17.70;51.10;;;;;;5046337;28;20029;-79
2021/10/15 10:18:22;;;;;;;10.40;6.07;;;17.20;51.50;;;;;;5046288;28;20045;-79
2021/10/15 10:21:05;;;;;;;7.85;6.20;;;16.70;52.40;;;;;;5046079;28;20500;-79
2021/10/15 10:23:39;;;;;;;7.53;6.05;;;16.40;53.10;;;;;;5046367;28;20078;-80
2021/10/15 10:26:10;;;;;;;13.02;6.50;;;16.00;54.30;;;;;;5046029;28;20132;-79
2021/10/15 10:28:37;;;;;;;8.20;6.18;;;15.80;53.50;;;;;;5046389;28;20070;-79
2021/10/15 10:31:05;;;;;;;12.88;6.97;;;15.30;56.20;;;;;;5046349;28;20112;-80
2021/10/15 10:33:57;;;;;;;8.93;6.45;;;15.10;57.20;;;;;;5045981;28;20401;-79
2021/10/15 10:36:24;;;;;;;8.40;6.05;;;14.80;57.80;;;;;;5046494;28;20116;-79
2021/10/15 10:38:50;;;;;;;9.93;5.47;;;14.60;59.00;;;;;;5045932;28;20033;-80
2021/10/15 10:41:18;;;;;;;;;;;14.60;58.10;;;;;;5044834;28;20036;-79
2021/10/15 10:43:44;;;;;;;9.35;6.00;;;14.20;59.80;;;;;;5046322;28;20419;-78
2021/10/15 10:46:26;;;;;;;;;;;14.30;60.90;;;;;;5044693;28;20029;-79
2021/10/15 10:48:52;;;;;;;9.60;6.00;;;14.30;60.80;;;;;;5044638;28;19909;-79
2021/10/15 10:51:28;;;;;;;;;;;14.20;60.70;;;;;;5045441;28;20021;-80
2021/10/15 10:54:03;;;;;;;8.98;5.75;;;14.20;60.60;;;;;;5044369;28;19931;-79
2021/10/15 10:56:50;;;;;;;7.50;5.53;;;14.20;59.90;;;;;;5045812;28;20029;-79
2021/10/15 10:59:16;;;;;;;;;;;14.30;59.50;;;;;;5044835;28;20075;-79
2021/10/15 11:01:48;;;;;;;6.68;4.57;;;14.20;59.30;;;;;;5045637;28;20015;-80
2021/10/15 11:04:29;;;;;;;8.98;5.55;;;14.20;59.20;;;;;;5044473;28;20056;-80
2021/10/15 11:07:17;;;;;;;7.93;5.40;;;14.10;58.30;;;;;;5046083;28;20024;-78
2021/10/15 11:09:47;;;;;;;5.75;3.92;;;14.00;58.70;;;;;;5045693;28;20039;-79
2021/10/15 11:12:19;;;;;;;10.65;4.75;;;13.90;59.40;;;;;;5045427;28;20087;-79
2021/10/15 11:14:52;;;;;;;6.70;4.78;;;14.00;59.80;;;;;;5048073;28;20512;-79
2021/10/15 11:17:41;;;;;;;4.95;3.50;;;14.00;57.70;;;;;;5049631;28;20532;-80
2021/10/15 11:20:10;;;;;;;6.40;4.20;;;13.80;58.20;;;;;;5045956;28;20037;-79
2021/10/15 11:22:38;;;;;;;8.65;4.38;;;13.80;59.60;;;;;;5049243;28;20049;-79
2021/10/15 11:25:05;;;;;;;4.95;4.03;;;13.90;60.40;;;;;;5048993;28;20029;-79
2021/10/15 11:27:31;;;;;;;4.90;3.30;;;13.90;58.90;;;;;;5049275;28;20029;-80
2021/10/15 11:29:58;;;;;;;;;;;13.90;58.30;;;;;;5048575;28;20025;-79
2021/10/15 11:32:42;;;;;;;5.30;3.70;;;13.90;56.30;;;;;;5047005;28;20327;-79
2021/10/15 11:35:14;;;;;;;6.35;3.85;;;13.80;56.90;;;;;;5044957;28;20083;-79
2021/10/15 11:38:01;;;;;;;7.30;3.60;;;13.80;58.50;;;;;;5041509;28;20030;-79
2021/10/15 11:40:35;;;;;;;5.82;3.60;;;14.00;59.20;;;;;;5045792;28;20048;-78
2021/10/15 11:43:06;;;;;;;5.78;3.17;;;14.10;59.20;;;;;;5046790;28;20067;-78
2021/10/15 11:45:34;;;;;;;8.50;4.97;;;14.20;59.20;;;;;;5046423;28;20148;-78
2021/10/15 11:48:02;;;;;;;5.72;3.08;;;14.20;58.60;;;;;;5048102;28;20162;-78
2021/10/15 11:50:37;;;;;;;6.07;3.72;;;14.20;57.10;;;;;;5044434;28;20471;-78
2021/10/15 11:53:04;;;;;;;8.68;4.90;;;14.30;56.80;;;;;;5047974;28;20049;-78
2021/10/15 11:55:34;;;;;;;7.40;4.43;;;14.30;57.20;;;;;;5044781;28;20067;-77
2021/10/15 11:58:15;;;;;;;5.57;3.75;;;14.30;56.90;;;;;;5046410;28;20037;-78
2021/10/15 12:01:03;;;;;;;8.82;3.53;;;14.30;57.80;;;;;;5046617;28;20037;-77
2021/10/15 12:03:31;;;;;;;5.50;3.53;;;14.30;57.30;;;;;;5046497;28;20690;-77
2021/10/15 12:06:18;;;;;;;5.72;3.72;;;14.30;57.70;;;;;;5047462;28;20045;-79
2021/10/15 12:08:46;;;;;;;6.20;4.25;;;14.40;57.50;;;;;;5041498;28;20056;-77
2021/10/15 12:11:13;;;;;;;5.55;3.38;;;14.50;55.80;;;;;;5044468;28;20497;-78
2021/10/15 12:13:39;;;;;;;6.40;3.22;;;14.50;55.80;;;;;;5045302;28;20037;-79
2021/10/15 12:16:25;;;;;;;;;;;14.40;56.70;;;;;;5042799;28;20033;-78
2021/10/15 12:19:17;;;;;;;6.15;4.20;;;14.40;56.90;;;;;;5042927;28;19912;-78
2021/10/15 12:21:45;;;;;;;5.28;3.58;;;14.50;57.00;;;;;;5045895;28;20091;-77
2021/10/15 12:24:40;;;;;;;7.60;4.35;;;14.50;57.10;;;;;;5041892;28;20033;-78
2021/10/15 12:27:19;;;;;;;9.23;4.30;;;14.60;55.90;;;;;;5042372;28;20045;-79
2021/10/15 12:29:49;;;;;;;7.00;3.38;;;14.70;55.80;;;;;;5047492;28;20037;-78
2021/10/15 12:32:34;;;;;;;5.75;3.45;;;14.70;56.40;;;;;;5045622;28;20485;-78
2021/10/15 12:35:17;;;;;;;6.20;3.33;;;14.80;56.20;;;;;;5045585;28;20088;-78
2021/10/15 12:37:52;;;;;;;6.15;3.63;;;14.90;54.70;;;;;;5043931;28;20619;-78
2021/10/15 12:40:29;;;;;;;5.93;3.33;;;14.80;52.30;;;;;;5044254;28;20049;-78
2021/10/15 12:42:54;;;;;;;6.32;3.40;;;14.90;53.70;;;;;;5044827;28;20040;-78
2021/10/15 12:45:20;;;;;;;;;;;15.00;54.10;;;;;;5043449;28;20462;-79
2021/10/15 12:48:03;;;;;;;6.05;3.38;;;15.10;54.70;;;;;;5043063;28;19947;-77
2021/10/15 12:50:31;;;;;;;12.90;10.18;;;15.20;53.70;;;;;;5044652;28;20465;-78
2021/10/15 12:52:57;;;;;;;22.33;19.10;;;15.20;53.50;;;;;;5045690;28;20080;-79
2021/10/15 12:55:24;;;;;;;;;;;15.10;53.30;;;;;;5044558;28;20080;-78
2021/10/15 12:58:00;;;;;;;4.85;2.72;;;15.10;54.10;;;;;;5044188;28;19924;-79
2021/10/15 13:00:26;;;;;;;4.33;2.47;;;15.10;52.80;;;;;;5044079;28;20037;-79
2021/10/15 13:03:06;;;;;;;4.72;2.88;;;15.10;52.60;;;;;;5044706;28;20036;-78
2021/10/15 13:05:33;;;;;;;7.85;3.60;;;15.20;52.90;;;;;;5042640;28;20064;-79
2021/10/15 13:07:59;;;;;;;6.95;3.20;;;15.10;52.60;;;;;;5045545;28;20043;-79
2021/10/15 13:10:44;;;;;;;6.43;3.90;;;15.20;52.70;;;;;;5046303;28;20119;-78
2021/10/15 13:13:10;;;;;;;4.95;3.38;;;15.20;52.80;;;;;;5044548;28;20426;-79
2021/10/15 13:15:35;;;;;;;;;;;15.20;52.90;;;;;;5045712;28;20033;-78
2021/10/15 13:18:02;;;;;;;7.30;3.58;;;15.20;53.10;;;;;;5044584;28;20006;-78
2021/10/15 13:20:28;;;;;;;9.85;4.68;;;15.20;53.20;;;;;;5044981;28;20041;-79
2021/10/15 13:22:54;;;;;;;;;;;15.10;53.00;;;;;;5045374;28;20028;-79
2021/10/15 13:25:20;;;;;;;4.63;3.00;;;15.10;52.60;;;;;;5040996;28;19917;-78
2021/10/15 13:27:46;;;;;;;6.00;3.30;;;15.00;51.90;;;;;;5046381;28;20040;-79
2021/10/15 13:30:11;;;;;;;;;;;15.00;51.30;;;;;;5044735;28;20417;-78